createdAt,value
2018-10-11T00:00:02.445Z,18.57
2018-10-11T00:03:08.171Z,20.20
2018-10-11T00:06:13.896Z,18.30
2018-10-11T00:09:19.498Z,20.03
2018-10-11T00:12:24.991Z,19.10
2018-10-11T00:15:30.387Z,18.73
2018-10-11T00:18:35.787Z,19.57
2018-10-11T00:21:41.167Z,19.57
2018-10-11T00:24:46.602Z,18.70
2018-10-11T00:27:52.021Z,19.43
2018-10-11T00:30:57.519Z,20.13
2018-10-11T00:34:03.827Z,18.30
2018-10-11T00:37:09.391Z,19.43
2018-10-11T00:40:14.874Z,20.03
2018-10-11T00:43:20.328Z,19.37
2018-10-11T00:46:25.735Z,19.13
2018-10-11T00:49:31.194Z,19.93
2018-10-11T00:52:37.003Z,19.97
2018-10-11T00:55:42.400Z,18.73
2018-10-11T00:58:47.825Z,19.23
2018-10-11T01:01:53.211Z,20.13
2018-10-11T01:04:58.699Z,20.93
2018-10-11T01:08:04.083Z,19.57
2018-10-11T01:11:09.886Z,20.80
2018-10-11T01:14:15.395Z,19.23
2018-10-11T01:17:20.822Z,20.23
2018-10-11T01:20:26.329Z,19.17
2018-10-11T01:23:31.795Z,19.70
2018-10-11T01:26:37.180Z,20.90
2018-10-11T01:29:42.849Z,19.97
2018-10-11T01:32:48.540Z,19.57
2018-10-11T01:35:54.003Z,20.53
2018-10-11T01:38:59.407Z,19.63
2018-10-11T01:42:05.145Z,19.00
2018-10-11T01:45:11.351Z,18.93
2018-10-11T01:48:16.775Z,20.27
2018-10-11T01:51:22.191Z,22.20
2018-10-11T01:54:28.249Z,20.27
2018-10-11T01:57:33.722Z,22.07
2018-10-11T02:00:39.181Z,22.03
2018-10-11T02:03:44.639Z,21.37
2018-10-11T02:06:50.400Z,21.40
2018-10-11T02:09:55.823Z,21.47
2018-10-11T02:13:01.291Z,20.17
2018-10-11T02:16:07.334Z,21.97
2018-10-11T02:19:12.738Z,22.20
2018-10-11T02:22:18.242Z,20.23
2018-10-11T02:25:23.673Z,21.83
2018-10-11T02:28:29.083Z,21.60
2018-10-11T02:31:34.492Z,20.70
2018-10-11T02:34:39.958Z,24.67
2018-10-11T02:37:45.371Z,20.50
2018-10-11T02:40:50.776Z,21.07
2018-10-11T02:43:56.500Z,23.13
2018-10-11T02:47:02.787Z,20.97
2018-10-11T02:50:08.932Z,22.50
2018-10-11T02:53:14.360Z,21.00
2018-10-11T02:56:22.807Z,22.70
2018-10-11T02:59:34.703Z,22.33
2018-10-11T03:02:41.235Z,22.43
2018-10-11T03:05:46.886Z,22.37
2018-10-11T03:08:52.307Z,22.30
2018-10-11T03:11:59.119Z,21.80
2018-10-11T03:15:05.152Z,22.03
2018-10-11T03:18:11.316Z,23.30
2018-10-11T03:21:16.714Z,22.23
2018-10-11T03:24:22.197Z,21.13
2018-10-11T03:27:27.791Z,21.07
2018-10-11T03:30:33.229Z,22.13
2018-10-11T03:33:38.719Z,22.77
2018-10-11T03:36:44.127Z,21.77
2018-10-11T03:39:49.519Z,20.87
2018-10-11T03:42:55.304Z,24.10
2018-10-11T03:46:00.812Z,21.37
2018-10-11T03:49:06.964Z,22.27
2018-10-11T03:52:12.473Z,22.50
2018-10-11T03:55:17.889Z,22.10
2018-10-11T03:58:23.368Z,21.60
2018-10-11T04:01:28.852Z,23.73
2018-10-11T04:04:34.369Z,20.90
2018-10-11T04:07:39.930Z,22.60
2018-10-11T04:10:45.536Z,23.23
2018-10-11T04:13:50.987Z,23.90
2018-10-11T04:16:56.394Z,24.17
2018-10-11T04:20:01.835Z,22.40
2018-10-11T04:23:07.814Z,23.30
2018-10-11T04:26:13.228Z,24.13
2018-10-11T04:29:18.611Z,23.53
2018-10-11T04:32:24.803Z,22.37
2018-10-11T04:35:30.255Z,21.50
2018-10-11T04:38:35.643Z,24.10
2018-10-11T04:41:41.493Z,26.30
2018-10-11T04:44:47.535Z,22.73
2018-10-11T04:47:52.962Z,23.07
2018-10-11T04:50:58.383Z,21.47
2018-10-11T04:54:03.899Z,22.47
2018-10-11T04:57:09.511Z,21.87
2018-10-11T05:00:14.920Z,22.80
2018-10-11T05:03:20.803Z,24.40
2018-10-11T05:06:26.242Z,21.70
2018-10-11T05:09:31.738Z,22.40
2018-10-11T05:12:38.049Z,23.50
2018-10-11T05:15:44.784Z,24.83
2018-10-11T05:18:58.251Z,25.07
2018-10-11T05:22:03.695Z,22.97
2018-10-11T05:25:09.623Z,25.67
2018-10-11T05:28:15.036Z,23.30
2018-10-11T05:31:20.500Z,24.13
2018-10-11T05:34:26.256Z,23.30
2018-10-11T05:37:31.728Z,22.93
2018-10-11T05:40:37.592Z,22.80
2018-10-11T05:43:43.396Z,22.93
2018-10-11T05:46:49.547Z,26.00
2018-10-11T05:49:55.051Z,24.40
2018-10-11T05:53:00.889Z,25.50
2018-10-11T05:56:06.674Z,24.93
2018-10-11T05:59:12.358Z,25.17
2018-10-11T06:02:17.927Z,25.27
2018-10-11T06:05:23.736Z,25.97
2018-10-11T06:08:29.835Z,24.00
2018-10-11T06:11:35.303Z,24.90
2018-10-11T06:14:41.051Z,26.10
2018-10-11T06:17:46.662Z,23.90
2018-10-11T06:20:53.006Z,25.00
2018-10-11T06:23:58.554Z,24.77
2018-10-11T06:27:04.319Z,30.23
2018-10-11T06:30:12.785Z,23.70
2018-10-11T06:33:18.870Z,23.43
2018-10-11T06:36:26.810Z,25.00
2018-10-11T06:39:32.475Z,25.97
2018-10-11T06:42:38.032Z,26.97
2018-10-11T06:45:44.992Z,25.50
2018-10-11T06:48:50.554Z,24.63
2018-10-11T06:51:56.039Z,26.87
2018-10-11T06:55:01.619Z,32.60
2018-10-11T06:58:07.319Z,26.03
2018-10-11T07:01:12.874Z,26.50
2018-10-11T07:04:18.356Z,25.00
2018-10-11T07:07:24.340Z,24.20
2018-10-11T07:10:29.900Z,26.03
2018-10-11T07:13:35.428Z,23.50
2018-10-11T07:16:40.959Z,25.53
2018-10-11T07:19:46.670Z,25.63
2018-10-11T07:22:52.376Z,25.97
2018-10-11T07:25:58.010Z,25.77
2018-10-11T07:29:03.675Z,24.50
2018-10-11T07:32:09.637Z,26.90
2018-10-11T07:35:15.787Z,27.73
2018-10-11T07:38:21.395Z,23.73
2018-10-11T07:41:26.870Z,22.67
2018-10-11T07:44:32.854Z,24.40
2018-10-11T07:47:38.369Z,25.40
2018-10-11T07:50:43.932Z,26.00
2018-10-11T07:53:50.191Z,23.70
2018-10-11T07:56:57.787Z,23.47
2018-10-11T08:00:03.426Z,23.57
2018-10-11T08:03:09.011Z,24.50
2018-10-11T08:06:14.796Z,23.97
2018-10-11T08:09:20.308Z,22.40
2018-10-11T08:12:26.386Z,21.30
2018-10-11T08:15:31.824Z,22.93
2018-10-11T08:18:37.381Z,21.23
2018-10-11T08:21:43.045Z,21.23
2018-10-11T08:24:48.885Z,22.17
2018-10-11T08:27:54.472Z,20.63
2018-10-11T08:30:59.917Z,21.63
2018-10-11T08:34:05.507Z,20.90
2018-10-11T08:37:10.961Z,19.80
2018-10-11T08:40:16.406Z,19.93
2018-10-11T08:43:21.932Z,19.53
2018-10-11T08:46:27.612Z,19.87
2018-10-11T08:49:33.166Z,19.80
2018-10-11T08:52:38.715Z,20.90
2018-10-11T08:55:44.231Z,21.27
2018-10-11T08:58:49.743Z,18.63
2018-10-11T09:01:55.324Z,19.27
2018-10-11T09:05:00.992Z,20.53
2018-10-11T09:08:07.224Z,20.40
2018-10-11T09:11:13.632Z,20.60
2018-10-11T09:14:19.244Z,19.47
2018-10-11T09:17:24.735Z,20.00
2018-10-11T09:20:30.294Z,18.40
2018-10-11T09:23:35.695Z,19.33
2018-10-11T09:26:41.287Z,18.07
2018-10-11T09:29:47.248Z,19.67
2018-10-11T09:32:53.726Z,20.37
2018-10-11T09:35:59.218Z,19.37
2018-10-11T09:39:06.635Z,18.37
2018-10-11T09:42:12.652Z,18.90
2018-10-11T09:45:18.284Z,19.00
2018-10-11T09:48:24.230Z,19.60
2018-10-11T09:54:58.692Z,21.63
2018-10-11T09:58:07.011Z,17.77
2018-10-11T10:01:17.649Z,19.07
2018-10-11T10:04:23.112Z,18.27
2018-10-11T10:07:28.976Z,19.50
2018-10-11T10:10:34.400Z,18.07
2018-10-11T10:13:39.883Z,17.53
2018-10-11T10:16:45.372Z,19.30
2018-10-11T10:19:50.891Z,16.50
2018-10-11T10:22:56.471Z,18.33
2018-10-11T10:26:01.894Z,18.70
2018-10-11T10:29:07.456Z,16.63
2018-10-11T10:32:13.003Z,16.60
2018-10-11T10:35:19.088Z,16.70
2018-10-11T10:38:24.595Z,15.80
2018-10-11T10:41:30.131Z,16.97
2018-10-11T10:44:35.587Z,16.57
2018-10-11T10:47:41.075Z,19.57
2018-10-11T10:50:46.553Z,16.27
2018-10-11T10:53:52.000Z,17.07
2018-10-11T10:56:58.386Z,14.77
2018-10-11T11:00:05.136Z,16.10
2018-10-11T11:03:10.584Z,15.63
2018-10-11T11:06:16.954Z,15.03
2018-10-11T11:09:22.447Z,13.67
2018-10-11T11:12:27.899Z,16.73
2018-10-11T11:15:33.367Z,16.20
2018-10-11T11:18:38.771Z,13.63
2018-10-11T11:21:44.185Z,14.40
2018-10-11T11:24:49.620Z,14.53
2018-10-11T11:27:55.528Z,12.27
2018-10-11T11:31:00.934Z,13.10
2018-10-11T11:34:06.772Z,12.90
2018-10-11T11:37:12.215Z,13.33
2018-10-11T11:40:17.805Z,13.77
2018-10-11T11:43:23.288Z,12.33
2018-10-11T11:46:28.808Z,12.90
2018-10-11T11:49:34.271Z,12.53
2018-10-11T11:52:40.351Z,11.97
2018-10-11T11:55:45.822Z,12.07
2018-10-11T11:58:51.283Z,11.83
2018-10-11T12:01:56.758Z,13.73
2018-10-11T12:05:03.166Z,12.17
2018-10-11T12:08:08.779Z,14.73
2018-10-11T12:11:14.346Z,12.00
2018-10-11T12:14:19.823Z,11.90
2018-10-11T12:17:25.364Z,11.80
2018-10-11T12:20:32.382Z,14.03
2018-10-11T12:23:37.836Z,11.97
2018-10-11T12:26:43.410Z,12.27
2018-10-11T12:29:51.964Z,12.63
2018-10-11T12:32:57.490Z,13.43
2018-10-11T12:36:02.955Z,12.07
2018-10-11T12:39:12.495Z,11.30
2018-10-11T12:42:20.303Z,10.93
2018-10-11T12:45:26.223Z,12.40
2018-10-11T12:48:31.849Z,11.80
2018-10-11T12:51:37.359Z,11.23
2018-10-11T12:54:42.950Z,12.10
2018-10-11T12:57:48.363Z,11.07
2018-10-11T13:00:53.830Z,10.93
2018-10-11T13:03:59.476Z,11.60
2018-10-11T13:07:05.017Z,11.27
2018-10-11T13:10:10.462Z,11.43
2018-10-11T13:13:15.947Z,10.27
2018-10-11T13:16:21.372Z,10.30
2018-10-11T13:19:26.847Z,10.67
2018-10-11T13:22:32.338Z,11.13
2018-10-11T13:25:37.764Z,10.23
2018-10-11T13:28:43.211Z,13.80
2018-10-11T13:31:49.031Z,11.60
2018-10-11T13:34:54.531Z,11.40
2018-10-11T13:37:59.939Z,10.40
2018-10-11T13:41:05.374Z,11.73
2018-10-11T13:44:12.087Z,12.07
2018-10-11T13:47:17.577Z,11.73
2018-10-11T13:50:23.144Z,9.97
2018-10-11T13:53:28.620Z,10.90
2018-10-11T13:56:34.019Z,10.13
2018-10-11T13:59:40.152Z,11.90
2018-10-11T14:02:45.764Z,11.23
2018-10-11T14:05:51.172Z,10.13
2018-10-11T14:08:56.595Z,11.70
2018-10-11T14:12:02.155Z,11.37
2018-10-11T14:15:09.087Z,12.10
2018-10-11T14:18:14.829Z,10.87
2018-10-11T14:21:20.243Z,10.80
2018-10-11T14:24:25.764Z,12.00
2018-10-11T14:27:31.207Z,11.00
2018-10-11T14:30:36.619Z,11.87
2018-10-11T14:33:42.195Z,11.47
2018-10-11T14:36:47.706Z,13.23
2018-10-11T14:39:53.299Z,11.80
2018-10-11T14:42:58.767Z,11.47
2018-10-11T14:46:04.206Z,11.77
2018-10-11T14:49:09.649Z,11.37
2018-10-11T14:52:15.047Z,11.30
2018-10-11T14:55:20.542Z,11.27
2018-10-11T14:58:25.965Z,11.13
2018-10-11T15:01:31.440Z,13.80
2018-10-11T15:04:36.935Z,11.43
2018-10-11T15:07:42.352Z,15.70
2018-10-11T15:10:47.834Z,13.13
2018-10-11T15:13:53.462Z,10.23
2018-10-11T15:16:58.919Z,13.73
2018-10-11T15:20:04.433Z,10.60
2018-10-11T15:23:09.925Z,13.50
2018-10-11T15:26:15.398Z,11.13
2018-10-11T15:29:20.906Z,10.57
2018-10-11T15:32:26.598Z,11.10
2018-10-11T15:35:32.069Z,10.57
2018-10-11T15:38:37.559Z,10.20
2018-10-11T15:41:43.022Z,17.10
2018-10-11T15:44:48.463Z,11.40
2018-10-11T15:47:53.985Z,12.63
2018-10-11T15:50:59.426Z,15.43
2018-10-11T15:54:04.975Z,11.43
2018-10-11T15:57:10.841Z,10.80
2018-10-11T16:00:16.585Z,10.57
2018-10-11T16:03:22.135Z,12.43
2018-10-11T16:06:27.598Z,12.13
2018-10-11T16:09:33.069Z,18.93
2018-10-11T16:12:38.733Z,13.00
2018-10-11T16:15:44.175Z,11.13
2018-10-11T16:18:49.598Z,13.20
2018-10-11T16:21:55.023Z,11.73
2018-10-11T16:25:00.503Z,11.07
2018-10-11T16:28:06.280Z,11.27
2018-10-11T16:31:11.695Z,11.97
2018-10-11T16:34:17.203Z,11.43
2018-10-11T16:37:22.695Z,12.63
2018-10-11T16:40:28.124Z,11.90
2018-10-11T16:43:33.694Z,13.90
2018-10-11T16:46:39.487Z,12.97
2018-10-11T16:49:45.050Z,11.53
2018-10-11T16:52:50.846Z,13.80
2018-10-11T16:55:56.332Z,13.97
2018-10-11T16:59:01.776Z,10.83
2018-10-11T17:02:08.114Z,12.33
2018-10-11T17:05:13.526Z,14.73
2018-10-11T17:08:19.000Z,12.47
2018-10-11T17:11:24.421Z,14.23
2018-10-11T17:14:29.970Z,19.43
2018-10-11T17:17:35.397Z,14.80
2018-10-11T17:20:40.825Z,15.77
2018-10-11T17:23:46.530Z,13.47
2018-10-11T17:26:51.939Z,14.63
2018-10-11T17:29:57.412Z,12.67
2018-10-11T17:33:02.994Z,15.00
2018-10-11T17:36:08.474Z,13.83
2018-10-11T17:39:13.891Z,15.93
2018-10-11T17:42:19.384Z,14.17
2018-10-11T17:45:24.967Z,17.17
2018-10-11T17:48:30.379Z,14.37
2018-10-11T17:51:35.780Z,14.73
2018-10-11T17:54:45.359Z,14.70
2018-10-11T17:57:50.780Z,13.43
2018-10-11T18:00:56.182Z,14.53
2018-10-11T18:04:01.643Z,15.77
2018-10-11T18:07:07.307Z,14.00
2018-10-11T18:10:12.798Z,13.53
2018-10-11T18:13:18.527Z,13.90
2018-10-11T18:16:23.918Z,16.23
2018-10-11T18:19:29.335Z,14.07
2018-10-11T18:22:35.056Z,13.27
2018-10-11T18:25:40.474Z,14.27
2018-10-11T18:28:45.914Z,12.93
2018-10-11T18:31:51.359Z,12.93
2018-10-11T18:34:56.858Z,13.67
2018-10-11T18:38:02.328Z,13.17
2018-10-11T18:41:07.813Z,13.00
2018-10-11T18:44:13.594Z,15.33
2018-10-11T18:47:19.362Z,13.53
2018-10-11T18:50:24.790Z,13.07
2018-10-11T18:53:30.305Z,13.13
2018-10-11T18:56:35.739Z,14.87
2018-10-11T18:59:41.183Z,13.70
2018-10-11T19:02:46.696Z,12.87
2018-10-11T19:05:52.156Z,13.13
2018-10-11T19:08:57.592Z,12.27
2018-10-11T19:12:03.006Z,14.30
2018-10-11T19:15:08.995Z,12.13
2018-10-11T19:18:14.476Z,12.70
2018-10-11T19:21:19.913Z,12.67
2018-10-11T19:24:25.379Z,12.23
2018-10-11T19:27:30.814Z,13.60
2018-10-11T19:30:36.342Z,13.90
2018-10-11T19:33:41.807Z,13.37
2018-10-11T19:36:47.242Z,14.10
2018-10-11T19:39:52.764Z,12.40
2018-10-11T19:42:59.250Z,12.30
2018-10-11T19:46:04.679Z,13.17
2018-10-11T19:49:10.098Z,13.20
2018-10-11T19:52:15.680Z,12.67
2018-10-11T19:55:21.122Z,12.40
2018-10-11T19:58:26.524Z,12.40
2018-10-11T20:01:31.971Z,13.23
2018-10-11T20:04:37.409Z,13.80
2018-10-11T20:07:42.874Z,14.73
2018-10-11T20:10:48.458Z,15.10
2018-10-11T20:13:53.951Z,14.47
2018-10-11T20:16:59.367Z,17.03
2018-10-11T20:20:05.167Z,15.23
2018-10-11T20:23:10.586Z,15.00
2018-10-11T20:26:15.990Z,15.80
2018-10-11T20:29:21.451Z,14.33
2018-10-11T20:32:26.938Z,16.10
2018-10-11T20:35:32.385Z,16.10
2018-10-11T20:38:37.794Z,16.73
2018-10-11T20:41:43.250Z,17.43
2018-10-11T20:44:48.783Z,17.87
2018-10-11T20:47:54.224Z,16.57
2018-10-11T20:50:59.731Z,17.00
2018-10-11T20:54:05.240Z,17.43
2018-10-11T20:57:10.902Z,18.20
2018-10-11T21:00:16.371Z,17.27
2018-10-11T21:03:21.904Z,14.77
2018-10-11T21:06:27.574Z,14.70
2018-10-11T21:09:33.014Z,16.30
2018-10-11T21:12:38.529Z,15.93
2018-10-11T21:15:44.061Z,16.00
2018-10-11T21:18:49.762Z,18.67
2018-10-11T21:21:55.191Z,14.43
2018-10-11T21:25:00.631Z,18.33
2018-10-11T21:28:06.246Z,17.27
2018-10-11T21:31:11.895Z,16.73
2018-10-11T21:34:17.396Z,16.77
2018-10-11T21:37:23.028Z,18.57
2018-10-11T21:40:30.816Z,15.63
2018-10-11T21:43:47.878Z,17.23
2018-10-11T21:46:53.690Z,17.37
2018-10-11T21:49:59.107Z,16.60
2018-10-11T21:53:04.652Z,16.13
2018-10-11T21:56:10.090Z,15.90
2018-10-11T21:59:15.660Z,14.93
2018-10-11T22:02:21.154Z,15.00
2018-10-11T22:05:26.574Z,14.97
2018-10-11T22:08:31.995Z,14.73
2018-10-11T22:11:37.701Z,15.17
2018-10-11T22:14:43.207Z,14.13
2018-10-11T22:17:48.730Z,14.93
2018-10-11T22:20:54.293Z,14.10
2018-10-11T22:23:59.994Z,14.20
2018-10-11T22:27:05.774Z,13.77
2018-10-11T22:30:11.506Z,16.93
2018-10-11T22:33:16.958Z,15.63
2018-10-11T22:36:22.405Z,14.43
2018-10-11T22:39:28.836Z,14.43
2018-10-11T22:42:36.646Z,12.77
2018-10-11T22:45:42.199Z,14.13
2018-10-11T22:48:47.596Z,13.77
2018-10-11T22:51:53.439Z,14.03
2018-10-11T22:54:58.871Z,15.93
2018-10-11T22:58:04.659Z,13.83
2018-10-11T23:01:10.077Z,14.00
2018-10-11T23:04:15.526Z,13.27
2018-10-11T23:07:20.975Z,13.67
2018-10-11T23:32:44.421Z,13.77
2018-10-11T23:35:49.884Z,16.27
2018-10-11T23:38:55.303Z,12.03
2018-10-11T23:42:00.745Z,14.13
2018-10-11T23:45:07.114Z,13.83
2018-10-11T23:48:12.558Z,13.40
2018-10-11T23:51:18.207Z,14.17
2018-10-11T23:54:23.839Z,12.37
2018-10-11T23:57:29.326Z,12.43
